sensor_id;sensor_type;location;lat;lon;timestamp;P1;durP1;ratioP1;P2;durP2;ratioP2
23802;SDS011;12082;51.786;6.018;2023-04-24T00:01:12;55.07;;;51.67;;
23802;SDS011;12082;51.786;6.018;2023-04-24T00:03:40;50.33;;;47.03;;
23802;SDS011;12082;51.786;6.018;2023-04-24T00:06:06;51.53;;;48.40;;
23802;SDS011;12082;51.786;6.018;2023-04-24T00:08:33;51.60;;;48.10;;
23802;SDS011;12082;51.786;6.018;2023-04-24T00:10:59;51.00;;;47.83;;
23802;SDS011;12082;51.786;6.018;2023-04-24T00:13:25;50.23;;;47.23;;
23802;SDS011;12082;51.786;6.018;2023-04-24T00:15:53;51.37;;;48.37;;
23802;SDS011;12082;51.786;6.018;2023-04-24T00:18:19;48.23;;;45.57;;
23802;SDS011;12082;51.786;6.018;2023-04-24T00:20:44;50.03;;;47.27;;
23802;SDS011;12082;51.786;6.018;2023-04-24T00:23:11;50.83;;;47.70;;
23802;SDS011;12082;51.786;6.018;2023-04-24T00:25:37;51.43;;;48.53;;
23802;SDS011;12082;51.786;6.018;2023-04-24T00:28:03;50.87;;;47.97;;
23802;SDS011;12082;51.786;6.018;2023-04-24T00:30:28;54.77;;;51.77;;
23802;SDS011;12082;51.786;6.018;2023-04-24T00:32:54;52.73;;;49.83;;
23802;SDS011;12082;51.786;6.018;2023-04-24T00:35:19;52.33;;;49.23;;
23802;SDS011;12082;51.786;6.018;2023-04-24T00:37:45;52.03;;;49.13;;
23802;SDS011;12082;51.786;6.018;2023-04-24T00:40:11;52.90;;;49.97;;
23802;SDS011;12082;51.786;6.018;2023-04-24T00:42:37;53.53;;;50.23;;
23802;SDS011;12082;51.786;6.018;2023-04-24T00:45:03;55.50;;;52.33;;
23802;SDS011;12082;51.786;6.018;2023-04-24T00:47:29;57.63;;;54.43;;
23802;SDS011;12082;51.786;6.018;2023-04-24T00:49:57;55.57;;;52.47;;
23802;SDS011;12082;51.786;6.018;2023-04-24T00:52:23;56.23;;;52.93;;
23802;SDS011;12082;51.786;6.018;2023-04-24T00:54:49;54.33;;;50.87;;
23802;SDS011;12082;51.786;6.018;2023-04-24T00:57:15;53.43;;;50.23;;
23802;SDS011;12082;51.786;6.018;2023-04-24T00:59:41;55.00;;;51.70;;
23802;SDS011;12082;51.786;6.018;2023-04-24T01:02:08;54.80;;;51.47;;
23802;SDS011;12082;51.786;6.018;2023-04-24T01:04:36;55.40;;;51.90;;
23802;SDS011;12082;51.786;6.018;2023-04-24T01:07:01;56.40;;;52.30;;
23802;SDS011;12082;51.786;6.018;2023-04-24T01:09:27;55.90;;;52.50;;
23802;SDS011;12082;51.786;6.018;2023-04-24T01:11:54;57.57;;;53.73;;
23802;SDS011;12082;51.786;6.018;2023-04-24T01:14:20;58.50;;;54.47;;
23802;SDS011;12082;51.786;6.018;2023-04-24T01:16:45;54.77;;;51.13;;
23802;SDS011;12082;51.786;6.018;2023-04-24T01:19:11;54.43;;;50.70;;
23802;SDS011;12082;51.786;6.018;2023-04-24T01:21:37;55.33;;;51.30;;
23802;SDS011;12082;51.786;6.018;2023-04-24T01:24:04;58.07;;;53.87;;
23802;SDS011;12082;51.786;6.018;2023-04-24T01:26:31;56.53;;;52.70;;
23802;SDS011;12082;51.786;6.018;2023-04-24T01:28:57;58.17;;;54.03;;
23802;SDS011;12082;51.786;6.018;2023-04-24T01:31:22;61.80;;;57.07;;
23802;SDS011;12082;51.786;6.018;2023-04-24T01:33:49;59.27;;;55.30;;
23802;SDS011;12082;51.786;6.018;2023-04-24T01:36:15;60.37;;;55.87;;
23802;SDS011;12082;51.786;6.018;2023-04-24T01:38:41;59.60;;;55.20;;
23802;SDS011;12082;51.786;6.018;2023-04-24T01:41:07;52.27;;;48.27;;
23802;SDS011;12082;51.786;6.018;2023-04-24T01:43:32;53.77;;;49.07;;
23802;SDS011;12082;51.786;6.018;2023-04-24T01:45:58;50.07;;;46.23;;
23802;SDS011;12082;51.786;6.018;2023-04-24T01:48:24;52.73;;;48.20;;
23802;SDS011;12082;51.786;6.018;2023-04-24T01:50:49;55.17;;;50.67;;
23802;SDS011;12082;51.786;6.018;2023-04-24T01:53:15;54.57;;;49.97;;
23802;SDS011;12082;51.786;6.018;2023-04-24T01:55:41;55.33;;;50.77;;
23802;SDS011;12082;51.786;6.018;2023-04-24T01:58:06;52.07;;;47.73;;
23802;SDS011;12082;51.786;6.018;2023-04-24T02:00:32;51.93;;;47.80;;
23802;SDS011;12082;51.786;6.018;2023-04-24T02:02:57;52.10;;;47.40;;
23802;SDS011;12082;51.786;6.018;2023-04-24T02:05:23;54.23;;;48.83;;
23802;SDS011;12082;51.786;6.018;2023-04-24T02:07:49;50.37;;;45.67;;
23802;SDS011;12082;51.786;6.018;2023-04-24T02:10:14;44.90;;;41.03;;
23802;SDS011;12082;51.786;6.018;2023-04-24T02:12:40;49.17;;;44.53;;
23802;SDS011;12082;51.786;6.018;2023-04-24T02:15:05;47.73;;;43.23;;
23802;SDS011;12082;51.786;6.018;2023-04-24T02:17:31;45.90;;;41.77;;
23802;SDS011;12082;51.786;6.018;2023-04-24T02:19:57;45.20;;;41.00;;
23802;SDS011;12082;51.786;6.018;2023-04-24T02:22:22;46.00;;;41.53;;
23802;SDS011;12082;51.786;6.018;2023-04-24T02:24:48;41.67;;;37.70;;
23802;SDS011;12082;51.786;6.018;2023-04-24T02:27:14;44.90;;;37.83;;
23802;SDS011;12082;51.786;6.018;2023-04-24T02:29:39;42.57;;;38.17;;
23802;SDS011;12082;51.786;6.018;2023-04-24T02:32:05;45.83;;;37.67;;
23802;SDS011;12082;51.786;6.018;2023-04-24T02:34:31;43.43;;;38.27;;
23802;SDS011;12082;51.786;6.018;2023-04-24T02:36:56;46.30;;;37.50;;
23802;SDS011;12082;51.786;6.018;2023-04-24T02:39:22;46.30;;;36.53;;
23802;SDS011;12082;51.786;6.018;2023-04-24T02:41:47;50.33;;;40.60;;
23802;SDS011;12082;51.786;6.018;2023-04-24T02:44:13;54.40;;;39.53;;
23802;SDS011;12082;51.786;6.018;2023-04-24T02:46:38;57.83;;;41.93;;
23802;SDS011;12082;51.786;6.018;2023-04-24T02:49:06;55.20;;;41.27;;
23802;SDS011;12082;51.786;6.018;2023-04-24T02:51:31;58.33;;;43.53;;
23802;SDS011;12082;51.786;6.018;2023-04-24T02:53:57;60.07;;;43.47;;
23802;SDS011;12082;51.786;6.018;2023-04-24T02:56:22;55.90;;;42.83;;
23802;SDS011;12082;51.786;6.018;2023-04-24T02:58:48;61.40;;;43.97;;
23802;SDS011;12082;51.786;6.018;2023-04-24T03:01:13;59.20;;;43.70;;
23802;SDS011;12082;51.786;6.018;2023-04-24T03:03:39;67.20;;;46.77;;
23802;SDS011;12082;51.786;6.018;2023-04-24T03:06:05;62.63;;;47.53;;
23802;SDS011;12082;51.786;6.018;2023-04-24T03:08:32;79.50;;;46.87;;
23802;SDS011;12082;51.786;6.018;2023-04-24T03:10:58;69.67;;;48.87;;
23802;SDS011;12082;51.786;6.018;2023-04-24T03:13:24;70.77;;;48.97;;
23802;SDS011;12082;51.786;6.018;2023-04-24T03:15:49;68.67;;;50.10;;
23802;SDS011;12082;51.786;6.018;2023-04-24T03:18:15;69.03;;;49.27;;
23802;SDS011;12082;51.786;6.018;2023-04-24T03:20:40;63.00;;;49.30;;
23802;SDS011;12082;51.786;6.018;2023-04-24T03:23:06;71.33;;;50.43;;
23802;SDS011;12082;51.786;6.018;2023-04-24T03:25:32;64.67;;;49.90;;
23802;SDS011;12082;51.786;6.018;2023-04-24T03:27:57;64.83;;;54.93;;
23802;SDS011;12082;51.786;6.018;2023-04-24T03:30:23;62.70;;;49.50;;
23802;SDS011;12082;51.786;6.018;2023-04-24T03:32:48;64.93;;;49.60;;
23802;SDS011;12082;51.786;6.018;2023-04-24T03:35:14;66.70;;;51.90;;
23802;SDS011;12082;51.786;6.018;2023-04-24T03:37:39;62.30;;;51.97;;
23802;SDS011;12082;51.786;6.018;2023-04-24T03:40:05;67.90;;;54.47;;
23802;SDS011;12082;51.786;6.018;2023-04-24T03:42:32;67.63;;;56.40;;
23802;SDS011;12082;51.786;6.018;2023-04-24T03:44:57;61.50;;;54.80;;
23802;SDS011;12082;51.786;6.018;2023-04-24T03:47:23;63.13;;;55.07;;
23802;SDS011;12082;51.786;6.018;2023-04-24T03:49:49;62.57;;;55.37;;
23802;SDS011;12082;51.786;6.018;2023-04-24T03:52:14;64.93;;;55.23;;
23802;SDS011;12082;51.786;6.018;2023-04-24T03:54:40;62.93;;;56.10;;
23802;SDS011;12082;51.786;6.018;2023-04-24T03:57:06;63.90;;;57.03;;
23802;SDS011;12082;51.786;6.018;2023-04-24T03:59:31;64.40;;;55.17;;
23802;SDS011;12082;51.786;6.018;2023-04-24T04:01:57;63.27;;;55.17;;
23802;SDS011;12082;51.786;6.018;2023-04-24T04:04:22;62.33;;;55.93;;
23802;SDS011;12082;51.786;6.018;2023-04-24T04:06:48;62.43;;;56.07;;
23802;SDS011;12082;51.786;6.018;2023-04-24T04:09:13;62.90;;;56.37;;
23802;SDS011;12082;51.786;6.018;2023-04-24T04:11:39;62.73;;;56.13;;
23802;SDS011;12082;51.786;6.018;2023-04-24T04:14:05;62.87;;;55.93;;
23802;SDS011;12082;51.786;6.018;2023-04-24T04:16:31;60.63;;;54.30;;
23802;SDS011;12082;51.786;6.018;2023-04-24T04:18:56;64.90;;;54.90;;
23802;SDS011;12082;51.786;6.018;2023-04-24T04:21:22;61.03;;;54.70;;
23802;SDS011;12082;51.786;6.018;2023-04-24T04:23:47;60.83;;;54.43;;
23802;SDS011;12082;51.786;6.018;2023-04-24T04:26:13;60.27;;;53.67;;
23802;SDS011;12082;51.786;6.018;2023-04-24T04:28:39;64.57;;;54.70;;
23802;SDS011;12082;51.786;6.018;2023-04-24T04:31:05;57.47;;;51.37;;
23802;SDS011;12082;51.786;6.018;2023-04-24T04:33:32;59.07;;;53.00;;
23802;SDS011;12082;51.786;6.018;2023-04-24T04:35:58;61.67;;;52.67;;
23802;SDS011;12082;51.786;6.018;2023-04-24T04:38:25;61.37;;;52.77;;
23802;SDS011;12082;51.786;6.018;2023-04-24T04:40:51;56.13;;;50.07;;
23802;SDS011;12082;51.786;6.018;2023-04-24T04:43:17;62.67;;;52.67;;
23802;SDS011;12082;51.786;6.018;2023-04-24T04:45:42;54.47;;;48.60;;
23802;SDS011;12082;51.786;6.018;2023-04-24T04:48:08;59.43;;;49.63;;
23802;SDS011;12082;51.786;6.018;2023-04-24T04:50:34;57.67;;;51.50;;
23802;SDS011;12082;51.786;6.018;2023-04-24T04:53:00;57.40;;;48.47;;
23802;SDS011;12082;51.786;6.018;2023-04-24T04:55:26;55.33;;;48.63;;
23802;SDS011;12082;51.786;6.018;2023-04-24T04:57:51;55.77;;;47.60;;
23802;SDS011;12082;51.786;6.018;2023-04-24T05:00:17;54.57;;;48.60;;
23802;SDS011;12082;51.786;6.018;2023-04-24T05:02:43;52.10;;;45.80;;
23802;SDS011;12082;51.786;6.018;2023-04-24T05:05:08;54.53;;;48.13;;
23802;SDS011;12082;51.786;6.018;2023-04-24T05:07:34;49.67;;;44.77;;
23802;SDS011;12082;51.786;6.018;2023-04-24T05:10:00;50.37;;;44.57;;
23802;SDS011;12082;51.786;6.018;2023-04-24T05:12:25;53.33;;;46.97;;
23802;SDS011;12082;51.786;6.018;2023-04-24T05:14:51;50.43;;;45.27;;
23802;SDS011;12082;51.786;6.018;2023-04-24T05:17:17;54.57;;;44.13;;
23802;SDS011;12082;51.786;6.018;2023-04-24T05:19:43;51.67;;;46.20;;
23802;SDS011;12082;51.786;6.018;2023-04-24T05:22:08;52.40;;;43.97;;
23802;SDS011;12082;51.786;6.018;2023-04-24T05:24:35;46.70;;;42.03;;
23802;SDS011;12082;51.786;6.018;2023-04-24T05:27:03;48.03;;;42.90;;
23802;SDS011;12082;51.786;6.018;2023-04-24T05:29:29;47.13;;;42.30;;
23802;SDS011;12082;51.786;6.018;2023-04-24T05:31:58;44.53;;;40.13;;
23802;SDS011;12082;51.786;6.018;2023-04-24T05:34:24;47.13;;;42.10;;
23802;SDS011;12082;51.786;6.018;2023-04-24T05:36:50;42.97;;;36.97;;
23802;SDS011;12082;51.786;6.018;2023-04-24T05:39:16;44.27;;;39.87;;
23802;SDS011;12082;51.786;6.018;2023-04-24T05:41:41;42.17;;;37.33;;
23802;SDS011;12082;51.786;6.018;2023-04-24T05:44:07;41.17;;;36.87;;
23802;SDS011;12082;51.786;6.018;2023-04-24T05:46:32;41.40;;;37.20;;
23802;SDS011;12082;51.786;6.018;2023-04-24T05:48:58;37.30;;;33.67;;
23802;SDS011;12082;51.786;6.018;2023-04-24T05:51:24;36.93;;;33.27;;
23802;SDS011;12082;51.786;6.018;2023-04-24T05:53:49;35.27;;;31.57;;
23802;SDS011;12082;51.786;6.018;2023-04-24T05:56:15;38.13;;;32.73;;
23802;SDS011;12082;51.786;6.018;2023-04-24T05:58:41;36.90;;;32.97;;
23802;SDS011;12082;51.786;6.018;2023-04-24T06:01:06;34.83;;;31.27;;
23802;SDS011;12082;51.786;6.018;2023-04-24T06:03:32;37.27;;;33.37;;
23802;SDS011;12082;51.786;6.018;2023-04-24T06:05:58;35.53;;;32.13;;
23802;SDS011;12082;51.786;6.018;2023-04-24T06:08:23;30.90;;;28.10;;
23802;SDS011;12082;51.786;6.018;2023-04-24T06:10:49;30.90;;;27.87;;
23802;SDS011;12082;51.786;6.018;2023-04-24T06:13:15;30.67;;;27.53;;
23802;SDS011;12082;51.786;6.018;2023-04-24T06:15:41;27.73;;;25.17;;
23802;SDS011;12082;51.786;6.018;2023-04-24T06:18:07;27.87;;;25.47;;
23802;SDS011;12082;51.786;6.018;2023-04-24T06:20:34;27.00;;;24.50;;
23802;SDS011;12082;51.786;6.018;2023-04-24T06:23:00;26.07;;;23.97;;
23802;SDS011;12082;51.786;6.018;2023-04-24T06:25:26;25.90;;;23.87;;
23802;SDS011;12082;51.786;6.018;2023-04-24T06:27:51;28.60;;;26.17;;
23802;SDS011;12082;51.786;6.018;2023-04-24T06:30:17;29.47;;;26.97;;
23802;SDS011;12082;51.786;6.018;2023-04-24T06:32:43;29.10;;;26.40;;
23802;SDS011;12082;51.786;6.018;2023-04-24T06:35:08;29.00;;;26.47;;
23802;SDS011;12082;51.786;6.018;2023-04-24T06:37:34;29.07;;;26.60;;
23802;SDS011;12082;51.786;6.018;2023-04-24T06:40:01;30.70;;;27.90;;
23802;SDS011;12082;51.786;6.018;2023-04-24T06:42:26;30.07;;;27.57;;
23802;SDS011;12082;51.786;6.018;2023-04-24T06:44:52;28.37;;;25.80;;
23802;SDS011;12082;51.786;6.018;2023-04-24T06:47:18;28.67;;;26.20;;
23802;SDS011;12082;51.786;6.018;2023-04-24T06:49:43;28.60;;;26.20;;
23802;SDS011;12082;51.786;6.018;2023-04-24T06:52:09;28.23;;;25.83;;
23802;SDS011;12082;51.786;6.018;2023-04-24T06:54:35;26.70;;;24.70;;
23802;SDS011;12082;51.786;6.018;2023-04-24T06:57:00;27.23;;;24.73;;
23802;SDS011;12082;51.786;6.018;2023-04-24T06:59:27;28.07;;;25.93;;
23802;SDS011;12082;51.786;6.018;2023-04-24T07:01:53;25.67;;;23.83;;
23802;SDS011;12082;51.786;6.018;2023-04-24T07:04:19;26.77;;;24.80;;
23802;SDS011;12082;51.786;6.018;2023-04-24T07:06:45;25.70;;;23.87;;
23802;SDS011;12082;51.786;6.018;2023-04-24T07:09:14;25.40;;;23.67;;
23802;SDS011;12082;51.786;6.018;2023-04-24T07:11:40;24.73;;;22.93;;
23802;SDS011;12082;51.786;6.018;2023-04-24T07:14:06;26.40;;;24.40;;
23802;SDS011;12082;51.786;6.018;2023-04-24T07:16:32;26.47;;;24.57;;
23802;SDS011;12082;51.786;6.018;2023-04-24T07:18:58;27.57;;;25.43;;
23802;SDS011;12082;51.786;6.018;2023-04-24T07:21:23;27.40;;;25.20;;
23802;SDS011;12082;51.786;6.018;2023-04-24T07:23:50;27.23;;;25.20;;
23802;SDS011;12082;51.786;6.018;2023-04-24T07:26:16;24.20;;;22.67;;
23802;SDS011;12082;51.786;6.018;2023-04-24T07:28:41;24.07;;;22.63;;
23802;SDS011;12082;51.786;6.018;2023-04-24T07:31:08;25.73;;;23.90;;
23802;SDS011;12082;51.786;6.018;2023-04-24T07:33:33;23.97;;;22.47;;
23802;SDS011;12082;51.786;6.018;2023-04-24T07:35:59;24.67;;;23.37;;
23802;SDS011;12082;51.786;6.018;2023-04-24T07:38:25;25.97;;;24.70;;
23802;SDS011;12082;51.786;6.018;2023-04-24T07:40:50;25.87;;;24.67;;
23802;SDS011;12082;51.786;6.018;2023-04-24T07:43:16;27.57;;;26.07;;
23802;SDS011;12082;51.786;6.018;2023-04-24T07:45:42;25.27;;;23.90;;
23802;SDS011;12082;51.786;6.018;2023-04-24T07:48:08;25.73;;;24.23;;
23802;SDS011;12082;51.786;6.018;2023-04-24T07:50:34;23.17;;;22.07;;
23802;SDS011;12082;51.786;6.018;2023-04-24T07:53:00;24.13;;;22.83;;
23802;SDS011;12082;51.786;6.018;2023-04-24T07:55:26;25.17;;;23.87;;
23802;SDS011;12082;51.786;6.018;2023-04-24T07:57:52;28.40;;;27.00;;
23802;SDS011;12082;51.786;6.018;2023-04-24T08:00:17;26.63;;;25.23;;
23802;SDS011;12082;51.786;6.018;2023-04-24T08:02:43;23.83;;;22.57;;
23802;SDS011;12082;51.786;6.018;2023-04-24T08:05:09;25.13;;;23.73;;
23802;SDS011;12082;51.786;6.018;2023-04-24T08:07:34;27.07;;;25.57;;
23802;SDS011;12082;51.786;6.018;2023-04-24T08:10:00;27.50;;;25.50;;
23802;SDS011;12082;51.786;6.018;2023-04-24T08:12:28;30.17;;;28.00;;
23802;SDS011;12082;51.786;6.018;2023-04-24T08:14:54;33.87;;;31.07;;
23802;SDS011;12082;51.786;6.018;2023-04-24T08:17:19;32.53;;;29.83;;
23802;SDS011;12082;51.786;6.018;2023-04-24T08:19:45;31.53;;;29.30;;
23802;SDS011;12082;51.786;6.018;2023-04-24T08:22:13;29.57;;;26.77;;
23802;SDS011;12082;51.786;6.018;2023-04-24T08:24:39;30.00;;;27.10;;
23802;SDS011;12082;51.786;6.018;2023-04-24T08:27:04;31.03;;;28.00;;
23802;SDS011;12082;51.786;6.018;2023-04-24T08:29:30;32.00;;;28.73;;
23802;SDS011;12082;51.786;6.018;2023-04-24T08:31:56;30.80;;;26.97;;
23802;SDS011;12082;51.786;6.018;2023-04-24T08:34:21;33.20;;;29.33;;
23802;SDS011;12082;51.786;6.018;2023-04-24T08:36:47;33.90;;;30.50;;
23802;SDS011;12082;51.786;6.018;2023-04-24T08:39:13;31.73;;;28.60;;
23802;SDS011;12082;51.786;6.018;2023-04-24T08:41:41;33.27;;;29.70;;
23802;SDS011;12082;51.786;6.018;2023-04-24T08:44:10;34.10;;;30.47;;
23802;SDS011;12082;51.786;6.018;2023-04-24T08:46:39;34.07;;;30.40;;
23802;SDS011;12082;51.786;6.018;2023-04-24T08:49:05;34.73;;;29.77;;
23802;SDS011;12082;51.786;6.018;2023-04-24T08:51:31;42.60;;;32.93;;
23802;SDS011;12082;51.786;6.018;2023-04-24T08:53:56;36.80;;;33.00;;
23802;SDS011;12082;51.786;6.018;2023-04-24T08:56:22;35.83;;;32.07;;
23802;SDS011;12082;51.786;6.018;2023-04-24T08:58:50;38.23;;;33.53;;
23802;SDS011;12082;51.786;6.018;2023-04-24T09:01:16;38.10;;;34.10;;
23802;SDS011;12082;51.786;6.018;2023-04-24T09:03:44;41.80;;;35.57;;
23802;SDS011;12082;51.786;6.018;2023-04-24T09:06:11;39.40;;;35.17;;
23802;SDS011;12082;51.786;6.018;2023-04-24T09:08:36;39.70;;;35.37;;
23802;SDS011;12082;51.786;6.018;2023-04-24T09:11:03;37.40;;;33.47;;
23802;SDS011;12082;51.786;6.018;2023-04-24T09:13:29;44.10;;;34.07;;
23802;SDS011;12082;51.786;6.018;2023-04-24T09:15:56;36.30;;;32.47;;
23802;SDS011;12082;51.786;6.018;2023-04-24T09:18:22;40.50;;;32.97;;
23802;SDS011;12082;51.786;6.018;2023-04-24T09:21:01;37.97;;;32.50;;
23802;SDS011;12082;51.786;6.018;2023-04-24T09:23:30;35.40;;;31.37;;
23802;SDS011;12082;51.786;6.018;2023-04-24T09:25:56;41.60;;;31.10;;
23802;SDS011;12082;51.786;6.018;2023-04-24T09:28:25;46.33;;;31.63;;
23802;SDS011;12082;51.786;6.018;2023-04-24T09:31:01;44.20;;;31.47;;
23802;SDS011;12082;51.786;6.018;2023-04-24T09:33:29;45.87;;;31.10;;
23802;SDS011;12082;51.786;6.018;2023-04-24T09:35:54;36.70;;;28.87;;
23802;SDS011;12082;51.786;6.018;2023-04-24T09:38:30;36.03;;;28.80;;
23802;SDS011;12082;51.786;6.018;2023-04-24T09:41:04;49.67;;;28.73;;
23802;SDS011;12082;51.786;6.018;2023-04-24T09:43:31;36.17;;;25.77;;
23802;SDS011;12082;51.786;6.018;2023-04-24T09:45:58;30.73;;;23.10;;
23802;SDS011;12082;51.786;6.018;2023-04-24T09:48:35;32.30;;;25.23;;
23802;SDS011;12082;51.786;6.018;2023-04-24T09:51:02;32.87;;;24.57;;
23802;SDS011;12082;51.786;6.018;2023-04-24T09:53:29;34.67;;;28.57;;
23802;SDS011;12082;51.786;6.018;2023-04-24T09:55:56;32.93;;;28.47;;
23802;SDS011;12082;51.786;6.018;2023-04-24T09:58:28;30.80;;;28.20;;
23802;SDS011;12082;51.786;6.018;2023-04-24T10:00:55;37.37;;;33.47;;
23802;SDS011;12082;51.786;6.018;2023-04-24T10:03:23;38.17;;;31.83;;
23802;SDS011;12082;51.786;6.018;2023-04-24T10:05:51;34.73;;;30.17;;
23802;SDS011;12082;51.786;6.018;2023-04-24T10:08:17;41.37;;;29.97;;
23802;SDS011;12082;51.786;6.018;2023-04-24T10:10:43;33.43;;;30.27;;
23802;SDS011;12082;51.786;6.018;2023-04-24T10:13:10;33.93;;;30.73;;
23802;SDS011;12082;51.786;6.018;2023-04-24T10:15:37;36.73;;;29.43;;
23802;SDS011;12082;51.786;6.018;2023-04-24T10:18:04;35.40;;;31.80;;
23802;SDS011;12082;51.786;6.018;2023-04-24T10:20:31;34.27;;;30.80;;
23802;SDS011;12082;51.786;6.018;2023-04-24T10:22:58;32.90;;;29.90;;
23802;SDS011;12082;51.786;6.018;2023-04-24T10:25:25;34.33;;;30.30;;
23802;SDS011;12082;51.786;6.018;2023-04-24T10:27:56;30.67;;;27.33;;
23802;SDS011;12082;51.786;6.018;2023-04-24T10:30:24;28.00;;;25.27;;
23802;SDS011;12082;51.786;6.018;2023-04-24T10:32:51;27.23;;;24.27;;
23802;SDS011;12082;51.786;6.018;2023-04-24T10:35:16;25.50;;;22.73;;
23802;SDS011;12082;51.786;6.018;2023-04-24T10:37:44;26.63;;;24.27;;
23802;SDS011;12082;51.786;6.018;2023-04-24T10:40:16;34.30;;;31.43;;
23802;SDS011;12082;51.786;6.018;2023-04-24T10:42:43;41.07;;;37.80;;
23802;SDS011;12082;51.786;6.018;2023-04-24T10:45:16;45.20;;;41.27;;
23802;SDS011;12082;51.786;6.018;2023-04-24T10:47:50;43.80;;;40.13;;
23802;SDS011;12082;51.786;6.018;2023-04-24T10:50:27;41.20;;;38.43;;
23802;SDS011;12082;51.786;6.018;2023-04-24T10:53:05;39.23;;;36.53;;
23802;SDS011;12082;51.786;6.018;2023-04-24T10:55:41;34.67;;;32.67;;
23802;SDS011;12082;51.786;6.018;2023-04-24T10:58:22;33.90;;;31.80;;
23802;SDS011;12082;51.786;6.018;2023-04-24T11:00:56;34.80;;;32.40;;
23802;SDS011;12082;51.786;6.018;2023-04-24T11:03:24;34.87;;;32.63;;
23802;SDS011;12082;51.786;6.018;2023-04-24T11:05:52;35.37;;;33.37;;
23802;SDS011;12082;51.786;6.018;2023-04-24T11:08:38;36.73;;;34.03;;
23802;SDS011;12082;51.786;6.018;2023-04-24T11:11:17;39.10;;;35.80;;
23802;SDS011;12082;51.786;6.018;2023-04-24T11:19:00;43.73;;;41.03;;
23802;SDS011;12082;51.786;6.018;2023-04-24T11:21:42;42.77;;;40.20;;
23802;SDS011;12082;51.786;6.018;2023-04-24T11:26:54;43.10;;;40.70;;
23802;SDS011;12082;51.786;6.018;2023-04-24T11:29:22;39.23;;;37.03;;
23802;SDS011;12082;51.786;6.018;2023-04-24T11:31:48;37.30;;;34.93;;
23802;SDS011;12082;51.786;6.018;2023-04-24T11:34:16;39.57;;;37.07;;
23802;SDS011;12082;51.786;6.018;2023-04-24T11:36:43;41.20;;;39.10;;
23802;SDS011;12082;51.786;6.018;2023-04-24T11:39:10;40.87;;;38.77;;
23802;SDS011;12082;51.786;6.018;2023-04-24T11:41:36;44.57;;;41.67;;
23802;SDS011;12082;51.786;6.018;2023-04-24T11:44:02;42.53;;;40.03;;
23802;SDS011;12082;51.786;6.018;2023-04-24T11:46:30;42.07;;;39.50;;
23802;SDS011;12082;51.786;6.018;2023-04-24T11:48:57;46.43;;;43.13;;
23802;SDS011;12082;51.786;6.018;2023-04-24T11:51:23;48.73;;;45.30;;
23802;SDS011;12082;51.786;6.018;2023-04-24T11:53:53;51.63;;;48.00;;
23802;SDS011;12082;51.786;6.018;2023-04-24T11:56:23;50.93;;;47.53;;
23802;SDS011;12082;51.786;6.018;2023-04-24T11:58:51;43.23;;;40.83;;
23802;SDS011;12082;51.786;6.018;2023-04-24T12:01:18;42.00;;;39.70;;
23802;SDS011;12082;51.786;6.018;2023-04-24T12:03:48;42.93;;;40.50;;
23802;SDS011;12082;51.786;6.018;2023-04-24T12:06:16;45.97;;;43.27;;
23802;SDS011;12082;51.786;6.018;2023-04-24T12:08:41;45.23;;;42.33;;
23802;SDS011;12082;51.786;6.018;2023-04-24T12:11:11;39.17;;;36.90;;
23802;SDS011;12082;51.786;6.018;2023-04-24T12:13:40;39.97;;;37.60;;
23802;SDS011;12082;51.786;6.018;2023-04-24T12:16:05;39.57;;;37.57;;
23802;SDS011;12082;51.786;6.018;2023-04-24T12:18:31;37.47;;;35.20;;
23802;SDS011;12082;51.786;6.018;2023-04-24T12:21:14;35.47;;;33.57;;
23802;SDS011;12082;51.786;6.018;2023-04-24T12:23:43;41.23;;;39.13;;
23802;SDS011;12082;51.786;6.018;2023-04-24T12:26:10;41.23;;;39.13;;
23802;SDS011;12082;51.786;6.018;2023-04-24T12:28:36;38.67;;;36.70;;
23802;SDS011;12082;51.786;6.018;2023-04-24T12:31:03;37.80;;;35.80;;
23802;SDS011;12082;51.786;6.018;2023-04-24T12:33:32;36.40;;;34.60;;
23802;SDS011;12082;51.786;6.018;2023-04-24T12:35:59;31.47;;;29.47;;
23802;SDS011;12082;51.786;6.018;2023-04-24T12:38:26;29.43;;;27.93;;
23802;SDS011;12082;51.786;6.018;2023-04-24T12:41:05;31.70;;;29.70;;
23802;SDS011;12082;51.786;6.018;2023-04-24T12:43:32;34.83;;;32.80;;
23802;SDS011;12082;51.786;6.018;2023-04-24T12:45:58;35.23;;;33.40;;
23802;SDS011;12082;51.786;6.018;2023-04-24T12:48:24;34.87;;;33.03;;
23802;SDS011;12082;51.786;6.018;2023-04-24T12:50:53;34.17;;;32.07;;
23802;SDS011;12082;51.786;6.018;2023-04-24T12:53:20;33.83;;;31.93;;
23802;SDS011;12082;51.786;6.018;2023-04-24T12:55:45;37.50;;;34.70;;
23802;SDS011;12082;51.786;6.018;2023-04-24T12:58:17;35.37;;;33.33;;
23802;SDS011;12082;51.786;6.018;2023-04-24T13:00:43;34.60;;;32.57;;
23802;SDS011;12082;51.786;6.018;2023-04-24T13:03:10;33.33;;;31.50;;
23802;SDS011;12082;51.786;6.018;2023-04-24T13:05:36;34.37;;;32.00;;
23802;SDS011;12082;51.786;6.018;2023-04-24T13:08:02;34.17;;;32.17;;
23802;SDS011;12082;51.786;6.018;2023-04-24T13:10:28;32.70;;;30.77;;
23802;SDS011;12082;51.786;6.018;2023-04-24T13:12:54;32.37;;;29.90;;
23802;SDS011;12082;51.786;6.018;2023-04-24T13:15:19;31.17;;;29.37;;
23802;SDS011;12082;51.786;6.018;2023-04-24T13:17:45;30.80;;;29.13;;
23802;SDS011;12082;51.786;6.018;2023-04-24T13:20:10;31.27;;;29.67;;
23802;SDS011;12082;51.786;6.018;2023-04-24T13:22:36;28.20;;;26.70;;
23802;SDS011;12082;51.786;6.018;2023-04-24T13:25:02;29.13;;;27.53;;
23802;SDS011;12082;51.786;6.018;2023-04-24T13:27:28;28.97;;;27.63;;
23802;SDS011;12082;51.786;6.018;2023-04-24T13:29:54;28.67;;;26.83;;
23802;SDS011;12082;51.786;6.018;2023-04-24T13:32:19;28.30;;;26.80;;
23802;SDS011;12082;51.786;6.018;2023-04-24T13:34:45;30.30;;;28.57;;
23802;SDS011;12082;51.786;6.018;2023-04-24T13:37:11;30.80;;;29.20;;
23802;SDS011;12082;51.786;6.018;2023-04-24T13:39:36;32.93;;;31.13;;
23802;SDS011;12082;51.786;6.018;2023-04-24T13:42:02;34.03;;;32.23;;
23802;SDS011;12082;51.786;6.018;2023-04-24T13:44:28;34.97;;;32.53;;
23802;SDS011;12082;51.786;6.018;2023-04-24T13:46:53;34.80;;;32.50;;
23802;SDS011;12082;51.786;6.018;2023-04-24T13:49:21;34.57;;;32.33;;
23802;SDS011;12082;51.786;6.018;2023-04-24T13:51:49;35.23;;;33.13;;
23802;SDS011;12082;51.786;6.018;2023-04-24T13:54:15;36.50;;;34.43;;
23802;SDS011;12082;51.786;6.018;2023-04-24T13:56:41;37.00;;;34.87;;
23802;SDS011;12082;51.786;6.018;2023-04-24T13:59:06;36.07;;;34.07;;
23802;SDS011;12082;51.786;6.018;2023-04-24T14:01:33;34.40;;;32.43;;
23802;SDS011;12082;51.786;6.018;2023-04-24T14:03:58;32.67;;;30.87;;
23802;SDS011;12082;51.786;6.018;2023-04-24T14:06:24;32.83;;;31.00;;
23802;SDS011;12082;51.786;6.018;2023-04-24T14:08:50;35.47;;;33.60;;
23802;SDS011;12082;51.786;6.018;2023-04-24T14:11:17;34.47;;;32.37;;
23802;SDS011;12082;51.786;6.018;2023-04-24T14:13:43;31.70;;;29.80;;
23802;SDS011;12082;51.786;6.018;2023-04-24T14:16:09;31.60;;;29.50;;
23802;SDS011;12082;51.786;6.018;2023-04-24T14:18:35;32.50;;;29.77;;
23802;SDS011;12082;51.786;6.018;2023-04-24T14:21:02;33.80;;;31.30;;
23802;SDS011;12082;51.786;6.018;2023-04-24T14:23:28;33.17;;;31.17;;
23802;SDS011;12082;51.786;6.018;2023-04-24T14:25:53;35.07;;;32.53;;